createdAt,value
2023-07-30T00:02:04.957Z,3.90
2023-07-30T00:04:13.365Z,3.90
2023-07-30T00:06:21.836Z,3.83
2023-07-30T00:08:33.191Z,4.00
2023-07-30T00:10:41.653Z,4.03
2023-07-30T00:12:50.092Z,3.40
2023-07-30T00:14:58.596Z,3.73
2023-07-30T00:17:07.368Z,3.97
2023-07-30T00:19:17.714Z,4.00
2023-07-30T00:21:25.262Z,3.37
2023-07-30T00:23:35.160Z,3.73
2023-07-30T00:25:43.581Z,4.17
2023-07-30T00:27:52.080Z,3.90
2023-07-30T00:30:00.563Z,4.03
2023-07-30T00:32:12.032Z,4.00
2023-07-30T00:34:20.478Z,3.83
2023-07-30T00:36:28.961Z,3.80
2023-07-30T00:38:38.836Z,3.70
2023-07-30T00:40:47.375Z,3.80
2023-07-30T00:42:55.903Z,3.63
2023-07-30T00:45:04.455Z,3.63
2023-07-30T00:47:12.951Z,3.43
2023-07-30T00:49:21.541Z,3.83
2023-07-30T00:51:30.641Z,4.20
2023-07-30T00:53:40.508Z,3.23
2023-07-30T00:55:49.019Z,3.80
2023-07-30T00:57:57.560Z,3.80
2023-07-30T01:00:10.021Z,3.83
2023-07-30T01:02:19.009Z,3.60
2023-07-30T01:04:29.181Z,3.40
2023-07-30T01:06:37.755Z,3.50
2023-07-30T01:08:50.515Z,3.80
2023-07-30T01:11:00.323Z,3.90
2023-07-30T01:13:10.010Z,3.43
2023-07-30T01:15:18.945Z,3.50
2023-07-30T01:17:27.758Z,3.50
2023-07-30T01:19:36.443Z,3.77
2023-07-30T01:21:45.350Z,3.80
2023-07-30T01:23:53.957Z,3.83
2023-07-30T01:26:03.997Z,4.07
2023-07-30T01:28:13.539Z,3.63
2023-07-30T01:30:31.222Z,4.10
2023-07-30T01:32:40.362Z,4.00
2023-07-30T01:34:49.871Z,3.93
2023-07-30T01:37:04.087Z,3.67
2023-07-30T01:39:13.353Z,3.63
2023-07-30T01:41:25.667Z,3.87
2023-07-30T01:43:34.153Z,3.60
2023-07-30T01:45:44.557Z,3.40
2023-07-30T01:47:53.207Z,3.37
2023-07-30T01:50:01.918Z,3.53
2023-07-30T01:52:11.873Z,3.73
2023-07-30T01:54:20.533Z,4.00
2023-07-30T01:56:31.317Z,3.57
2023-07-30T01:58:41.081Z,3.77
2023-07-30T02:00:49.554Z,3.77
2023-07-30T02:02:59.658Z,3.53
2023-07-30T02:05:08.355Z,3.50
2023-07-30T02:07:18.393Z,3.80
2023-07-30T02:09:26.882Z,3.53
2023-07-30T02:11:35.625Z,3.70
2023-07-30T02:13:46.648Z,4.03
2023-07-30T02:15:55.260Z,4.00
2023-07-30T02:18:03.974Z,3.93
2023-07-30T02:20:12.653Z,3.83
2023-07-30T02:22:25.461Z,4.47
2023-07-30T02:24:34.138Z,4.03
2023-07-30T02:26:42.807Z,4.03
2023-07-30T02:28:51.249Z,3.80
2023-07-30T02:30:59.878Z,3.80
2023-07-30T02:33:08.407Z,3.60
2023-07-30T02:35:16.945Z,3.47
2023-07-30T02:37:27.256Z,3.83
2023-07-30T02:39:37.443Z,3.63
2023-07-30T02:41:46.023Z,4.10
2023-07-30T02:43:55.734Z,3.83
2023-07-30T02:46:04.382Z,3.80
2023-07-30T02:48:13.113Z,4.07
2023-07-30T02:50:21.926Z,3.53
2023-07-30T02:52:31.830Z,3.90
2023-07-30T02:54:40.403Z,3.60
2023-07-30T02:56:48.901Z,4.07
2023-07-30T02:58:57.471Z,3.40
2023-07-30T03:01:11.140Z,3.10
2023-07-30T03:03:21.972Z,3.80
2023-07-30T03:05:30.552Z,3.80
2023-07-30T03:07:40.692Z,3.90
2023-07-30T03:09:49.284Z,3.87
2023-07-30T03:11:57.885Z,3.93
2023-07-30T03:14:06.446Z,3.57
2023-07-30T03:16:15.083Z,3.60
2023-07-30T03:18:23.673Z,3.70
2023-07-30T03:20:32.181Z,3.53
2023-07-30T03:22:42.077Z,3.90
2023-07-30T03:24:50.651Z,3.60
2023-07-30T03:26:58.113Z,3.67
2023-07-30T03:29:06.753Z,3.53
2023-07-30T03:31:15.427Z,3.60
2023-07-30T03:33:24.102Z,3.47
2023-07-30T03:35:32.718Z,3.57
2023-07-30T03:37:42.862Z,4.10
2023-07-30T03:39:51.545Z,3.47
2023-07-30T03:42:02.136Z,3.47
2023-07-30T03:44:10.805Z,3.47
2023-07-30T03:46:22.599Z,3.60
2023-07-30T03:48:30.337Z,3.27
2023-07-30T03:50:38.806Z,3.53
2023-07-30T03:52:48.867Z,3.63
2023-07-30T03:54:57.553Z,3.83
2023-07-30T03:57:06.453Z,3.73
2023-07-30T03:59:16.057Z,3.27
2023-07-30T04:01:24.607Z,3.93
2023-07-30T04:03:33.171Z,3.27
2023-07-30T04:05:41.849Z,4.00
2023-07-30T04:07:51.803Z,3.70
2023-07-30T04:10:00.335Z,3.50
2023-07-30T04:12:09.050Z,4.20
2023-07-30T04:14:17.608Z,3.63
2023-07-30T04:16:26.257Z,3.73
2023-07-30T04:18:36.122Z,4.37
2023-07-30T04:20:44.708Z,3.50
2023-07-30T04:22:54.709Z,3.80
2023-07-30T04:25:03.303Z,3.57
2023-07-30T04:27:11.962Z,3.73
2023-07-30T04:29:20.601Z,3.73
2023-07-30T04:31:29.183Z,4.00
2023-07-30T04:33:37.704Z,3.70
2023-07-30T04:35:46.300Z,4.43
2023-07-30T04:37:56.427Z,4.10
2023-07-30T04:40:05.095Z,4.37
2023-07-30T04:42:14.619Z,4.07
2023-07-30T04:44:23.258Z,4.27
2023-07-30T04:46:32.245Z,4.00
2023-07-30T04:48:40.888Z,4.43
2023-07-30T04:50:49.533Z,4.40
2023-07-30T04:53:03.174Z,4.10
2023-07-30T04:55:11.916Z,4.80
2023-07-30T04:57:20.633Z,4.57
2023-07-30T04:59:29.279Z,4.30
2023-07-30T05:01:38.423Z,4.37
2023-07-30T05:03:47.568Z,4.87
2023-07-30T05:05:56.935Z,4.60
2023-07-30T05:08:07.211Z,4.63
2023-07-30T05:10:17.289Z,4.10
2023-07-30T05:12:25.870Z,4.47
2023-07-30T05:14:34.341Z,4.83
2023-07-30T05:16:46.038Z,4.30
2023-07-30T05:19:03.271Z,4.83
2023-07-30T05:21:11.852Z,4.43
2023-07-30T05:23:23.256Z,4.50
2023-07-30T05:25:31.990Z,4.63
2023-07-30T05:27:40.586Z,4.30
2023-07-30T05:29:49.695Z,4.67
2023-07-30T05:31:58.344Z,4.73
2023-07-30T05:34:07.210Z,4.80
2023-07-30T05:36:15.846Z,4.37
2023-07-30T05:38:31.718Z,4.60
2023-07-30T05:40:40.443Z,4.63
2023-07-30T05:42:50.258Z,4.50
2023-07-30T05:44:58.823Z,4.60
2023-07-30T05:47:07.446Z,4.47
2023-07-30T05:49:17.467Z,4.50
2023-07-30T05:51:26.587Z,4.47
2023-07-30T05:53:37.965Z,5.00
2023-07-30T05:55:51.288Z,5.07
2023-07-30T05:58:00.389Z,4.40
2023-07-30T06:00:10.522Z,4.63
2023-07-30T06:02:21.604Z,4.57
2023-07-30T06:04:30.614Z,4.60
2023-07-30T06:06:39.426Z,4.67
2023-07-30T06:08:50.537Z,4.70
2023-07-30T06:11:03.104Z,5.03
2023-07-30T06:13:12.101Z,4.97
2023-07-30T06:15:21.124Z,4.63
2023-07-30T06:17:31.752Z,4.53
2023-07-30T06:19:42.880Z,4.93
2023-07-30T06:21:54.433Z,5.07
2023-07-30T06:24:04.577Z,5.00
2023-07-30T06:26:13.752Z,4.50
2023-07-30T06:28:22.906Z,4.83
2023-07-30T06:30:31.969Z,4.20
2023-07-30T06:32:41.185Z,4.43
2023-07-30T06:34:50.047Z,4.47
2023-07-30T06:36:58.776Z,4.93
2023-07-30T06:39:20.895Z,5.30
2023-07-30T06:41:29.685Z,4.90
2023-07-30T06:43:44.802Z,4.73
2023-07-30T06:45:53.634Z,4.80
2023-07-30T06:48:02.589Z,4.80
2023-07-30T06:50:11.881Z,4.70
2023-07-30T06:52:21.986Z,4.70
2023-07-30T06:54:39.749Z,18.67
2023-07-30T06:56:59.531Z,37.63
2023-07-30T06:59:08.641Z,5.73
2023-07-30T07:01:17.674Z,6.17
2023-07-30T07:03:26.472Z,15.30
2023-07-30T07:05:35.487Z,6.43
2023-07-30T07:07:44.366Z,5.47
2023-07-30T07:09:55.316Z,4.87
2023-07-30T07:12:06.772Z,4.90
2023-07-30T07:14:15.550Z,4.67
2023-07-30T07:16:24.596Z,5.00
2023-07-30T07:18:33.378Z,5.20
2023-07-30T07:20:43.011Z,5.67
2023-07-30T07:22:51.748Z,5.20
2023-07-30T07:25:04.736Z,5.30
2023-07-30T07:27:14.063Z,5.73
2023-07-30T07:29:22.971Z,5.80
2023-07-30T07:31:36.111Z,5.87
2023-07-30T07:33:47.297Z,5.50
2023-07-30T07:36:05.350Z,5.93
2023-07-30T07:38:14.753Z,5.40
2023-07-30T07:40:25.567Z,5.37
2023-07-30T07:42:34.943Z,4.97
2023-07-30T07:44:47.062Z,5.53
2023-07-30T07:46:55.726Z,5.60
2023-07-30T07:49:04.216Z,5.20
2023-07-30T07:51:13.659Z,5.27
2023-07-30T07:53:22.612Z,5.30
2023-07-30T07:55:36.822Z,5.13
2023-07-30T08:00:10.114Z,4.87
2023-07-30T08:02:20.124Z,5.10
2023-07-30T08:04:29.095Z,5.43
2023-07-30T08:06:37.623Z,7.37
2023-07-30T08:08:46.698Z,6.13
2023-07-30T08:10:57.143Z,5.17
2023-07-30T08:13:05.787Z,15.30
2023-07-30T08:15:15.092Z,6.10
2023-07-30T08:17:23.620Z,4.90
2023-07-30T08:19:44.475Z,5.60
2023-07-30T08:21:55.637Z,7.73
2023-07-30T08:24:04.932Z,13.47
2023-07-30T08:26:17.441Z,7.13
2023-07-30T08:28:25.343Z,5.67
2023-07-30T08:30:34.134Z,6.10
2023-07-30T08:32:44.426Z,5.97
2023-07-30T08:34:53.169Z,6.00
2023-07-30T08:37:02.126Z,5.20
2023-07-30T08:39:11.138Z,5.60
2023-07-30T08:41:21.811Z,5.10
2023-07-30T08:43:31.836Z,5.33
2023-07-30T08:45:40.383Z,4.70
2023-07-30T08:47:53.516Z,5.33
2023-07-30T08:50:03.995Z,5.13
2023-07-30T08:52:12.941Z,5.00
2023-07-30T08:54:23.501Z,4.60
2023-07-30T08:56:34.806Z,4.90
2023-07-30T08:58:44.197Z,5.13
2023-07-30T09:00:53.399Z,5.03
2023-07-30T09:03:03.490Z,5.00
2023-07-30T09:05:12.529Z,5.03
2023-07-30T09:07:21.492Z,4.50
2023-07-30T09:09:30.349Z,4.90
2023-07-30T09:11:40.518Z,4.97
2023-07-30T09:13:49.604Z,5.10
2023-07-30T09:15:57.327Z,5.10
2023-07-30T09:18:06.614Z,5.07
2023-07-30T09:20:17.042Z,5.33
2023-07-30T09:22:29.150Z,5.53
2023-07-30T09:24:37.839Z,5.30
2023-07-30T09:26:48.723Z,4.87
2023-07-30T09:28:58.820Z,5.00
2023-07-30T09:31:20.792Z,5.13
2023-07-30T09:33:30.602Z,4.87
2023-07-30T09:35:39.518Z,5.10
2023-07-30T09:37:48.853Z,5.10
2023-07-30T09:40:00.408Z,5.30
2023-07-30T09:42:10.970Z,4.90
2023-07-30T09:44:20.064Z,5.07
2023-07-30T09:46:31.281Z,5.00
2023-07-30T09:48:40.088Z,4.63
2023-07-30T09:50:48.819Z,4.87
2023-07-30T09:52:57.433Z,4.57
2023-07-30T09:55:08.533Z,4.77
2023-07-30T09:57:19.881Z,4.63
2023-07-30T09:59:28.874Z,5.17
2023-07-30T10:01:42.299Z,4.87
2023-07-30T10:03:52.194Z,4.67
2023-07-30T10:06:09.048Z,4.90
2023-07-30T10:08:20.273Z,4.50
2023-07-30T10:10:29.205Z,4.37
2023-07-30T10:12:41.481Z,4.57
2023-07-30T10:14:50.503Z,4.53
2023-07-30T10:17:01.634Z,4.60
2023-07-30T10:19:11.955Z,4.70
2023-07-30T10:21:24.397Z,4.63
2023-07-30T10:23:35.589Z,4.87
2023-07-30T10:25:48.586Z,4.33
2023-07-30T10:27:59.053Z,5.03
2023-07-30T10:30:14.474Z,4.27
2023-07-30T10:32:25.474Z,4.60
2023-07-30T10:34:47.446Z,4.53
2023-07-30T10:36:58.184Z,4.30
2023-07-30T10:39:13.092Z,4.67
2023-07-30T10:41:22.142Z,4.70
2023-07-30T10:43:34.265Z,4.90
2023-07-30T10:45:51.125Z,5.10
2023-07-30T10:48:06.923Z,4.70
2023-07-30T10:50:17.776Z,5.07
2023-07-30T10:52:27.894Z,4.70
2023-07-30T10:54:36.850Z,5.03
2023-07-30T10:56:48.339Z,5.50
2023-07-30T10:58:59.185Z,5.43
2023-07-30T11:01:09.769Z,5.30
2023-07-30T11:03:18.924Z,5.37
2023-07-30T11:05:28.084Z,5.57
2023-07-30T11:07:35.920Z,5.50
2023-07-30T11:09:45.363Z,5.77
2023-07-30T11:11:55.736Z,5.60
2023-07-30T11:14:07.353Z,5.90
2023-07-30T11:16:19.494Z,6.80
2023-07-30T11:18:31.822Z,6.17
2023-07-30T11:20:41.088Z,6.57
2023-07-30T11:22:50.732Z,5.90
2023-07-30T11:24:59.465Z,6.87
2023-07-30T11:27:08.607Z,6.43
2023-07-30T11:29:20.388Z,6.90
2023-07-30T11:31:30.033Z,6.43
2023-07-30T11:33:39.555Z,6.57
2023-07-30T11:35:47.386Z,6.50
2023-07-30T11:37:56.495Z,6.23
2023-07-30T11:40:05.544Z,6.03
2023-07-30T11:42:14.308Z,6.17
2023-07-30T11:44:34.952Z,6.40
2023-07-30T11:46:56.250Z,6.27
2023-07-30T11:49:15.056Z,5.90
2023-07-30T11:51:25.589Z,6.37
2023-07-30T11:53:45.993Z,6.13
2023-07-30T11:55:54.738Z,6.13
2023-07-30T11:58:04.133Z,6.27
2023-07-30T12:00:16.210Z,6.13
2023-07-30T12:02:25.194Z,5.50
2023-07-30T12:04:34.413Z,5.63
2023-07-30T12:06:43.767Z,5.07
2023-07-30T12:08:53.799Z,6.50
2023-07-30T12:11:05.582Z,5.20
2023-07-30T12:13:13.728Z,5.30
2023-07-30T12:15:27.058Z,5.37
2023-07-30T12:17:35.828Z,5.33
2023-07-30T12:19:44.489Z,5.93
2023-07-30T12:21:53.436Z,5.67
2023-07-30T12:24:02.069Z,5.60
2023-07-30T12:26:09.707Z,5.97
2023-07-30T12:28:18.463Z,5.83
2023-07-30T12:30:29.112Z,6.43
2023-07-30T12:32:37.771Z,5.07
2023-07-30T12:34:47.598Z,5.30
2023-07-30T12:36:57.628Z,5.60
2023-07-30T12:39:06.947Z,5.70
2023-07-30T12:41:15.657Z,4.27
2023-07-30T12:43:24.360Z,3.33
2023-07-30T12:45:34.455Z,3.17
2023-07-30T12:47:49.566Z,2.80
2023-07-30T12:49:58.270Z,3.93
2023-07-30T12:52:07.298Z,3.80
2023-07-30T12:54:16.375Z,3.50
2023-07-30T12:56:24.095Z,3.27
2023-07-30T12:58:32.804Z,2.80
2023-07-30T13:00:43.424Z,2.97
2023-07-30T13:02:56.568Z,2.47
2023-07-30T13:05:06.978Z,2.70
2023-07-30T13:07:15.968Z,2.97
2023-07-30T13:09:25.017Z,2.97
2023-07-30T13:11:34.059Z,2.77
2023-07-30T13:13:43.314Z,2.77
2023-07-30T13:15:59.073Z,2.37
2023-07-30T13:18:09.367Z,2.37
2023-07-30T13:20:26.197Z,2.53
2023-07-30T13:22:34.855Z,2.30
2023-07-30T13:24:43.436Z,2.40
2023-07-30T13:26:51.960Z,2.33
2023-07-30T13:29:01.200Z,2.70
2023-07-30T13:31:12.016Z,2.60
2023-07-30T13:33:20.606Z,2.57
2023-07-30T13:35:29.170Z,2.90
2023-07-30T13:37:37.777Z,2.87
2023-07-30T13:39:45.330Z,3.80
2023-07-30T13:41:53.888Z,2.87
2023-07-30T13:44:02.453Z,3.07
2023-07-30T13:46:15.444Z,3.23
2023-07-30T13:48:24.041Z,4.00
2023-07-30T13:50:32.664Z,3.80
2023-07-30T13:52:41.311Z,3.73
2023-07-30T13:54:49.862Z,3.40
2023-07-30T13:56:58.389Z,3.67
2023-07-30T13:59:07.139Z,3.90
2023-07-30T14:01:17.155Z,3.70
2023-07-30T14:03:25.800Z,3.60
2023-07-30T14:05:34.485Z,3.87
2023-07-30T14:07:43.021Z,4.20
2023-07-30T14:09:51.597Z,3.80
2023-07-30T14:12:00.074Z,4.10
2023-07-30T14:14:08.765Z,4.80
2023-07-30T14:16:18.763Z,4.03
2023-07-30T14:18:27.436Z,5.00
2023-07-30T14:20:38.816Z,5.20
2023-07-30T14:22:47.443Z,5.10
2023-07-30T14:24:55.313Z,5.10
2023-07-30T14:27:11.033Z,4.93
2023-07-30T14:29:19.578Z,4.73
2023-07-30T14:31:30.003Z,3.80
2023-07-30T14:33:40.668Z,3.90
2023-07-30T14:35:49.353Z,4.03
2023-07-30T14:37:58.137Z,4.20
2023-07-30T14:40:07.230Z,4.00
2023-07-30T14:42:17.639Z,3.80
2023-07-30T14:44:26.152Z,3.40
2023-07-30T14:46:38.350Z,3.80
2023-07-30T14:48:45.978Z,3.60
2023-07-30T14:50:54.496Z,3.47
2023-07-30T14:53:03.046Z,4.03
2023-07-30T14:55:14.590Z,3.87
2023-07-30T14:57:23.174Z,4.07
2023-07-30T14:59:31.777Z,4.03
2023-07-30T15:01:42.840Z,3.97
2023-07-30T15:03:52.933Z,4.57
2023-07-30T15:06:01.419Z,3.90
2023-07-30T15:08:10.030Z,3.70
2023-07-30T15:10:18.997Z,3.60
2023-07-30T15:12:28.715Z,2.97
2023-07-30T15:14:38.471Z,3.07
2023-07-30T15:16:48.546Z,2.83
2023-07-30T15:18:59.433Z,2.83
2023-07-30T15:21:08.250Z,2.97
2023-07-30T15:23:17.672Z,2.67
2023-07-30T15:25:26.725Z,2.90
2023-07-30T15:27:37.439Z,2.97
2023-07-30T15:29:45.845Z,3.10
2023-07-30T15:31:58.034Z,3.17
2023-07-30T15:34:08.400Z,3.00
2023-07-30T15:36:17.337Z,3.30
2023-07-30T15:38:25.893Z,3.10
2023-07-30T15:40:35.897Z,3.00
2023-07-30T15:42:44.650Z,3.03
2023-07-30T15:44:53.301Z,3.23
2023-07-30T15:47:03.870Z,2.93
2023-07-30T15:49:11.659Z,2.90
2023-07-30T15:51:21.136Z,2.87
2023-07-30T15:53:30.194Z,3.10
2023-07-30T15:55:39.080Z,3.17
2023-07-30T15:57:47.672Z,3.33
2023-07-30T15:59:56.429Z,3.20
2023-07-30T16:02:06.707Z,3.37
2023-07-30T16:04:15.290Z,3.10
2023-07-30T16:06:28.317Z,3.30
2023-07-30T16:08:38.029Z,3.03
2023-07-30T16:10:46.783Z,3.40
2023-07-30T16:12:57.231Z,3.60
2023-07-30T16:15:06.203Z,3.40
2023-07-30T16:17:16.499Z,3.17
2023-07-30T16:19:25.197Z,3.40
2023-07-30T16:21:33.737Z,3.10
2023-07-30T16:23:44.176Z,3.40
2023-07-30T16:25:52.824Z,3.30
2023-07-30T16:28:02.311Z,3.10
2023-07-30T16:30:11.326Z,3.03
2023-07-30T16:32:22.086Z,3.20
2023-07-30T16:34:31.102Z,3.33
2023-07-30T16:36:40.024Z,3.30
2023-07-30T16:38:49.335Z,3.83
2023-07-30T16:40:58.120Z,3.90
2023-07-30T16:43:08.728Z,4.40
2023-07-30T16:45:17.300Z,3.87
2023-07-30T16:47:27.267Z,3.60
2023-07-30T16:49:35.761Z,4.17
2023-07-30T16:51:44.276Z,4.10
2023-07-30T16:53:57.376Z,4.33
2023-07-30T16:56:12.197Z,4.40
2023-07-30T16:58:23.115Z,4.53
2023-07-30T17:00:32.955Z,4.60
2023-07-30T17:02:45.664Z,4.73
2023-07-30T17:04:56.505Z,5.63
2023-07-30T17:07:05.192Z,5.60
2023-07-30T17:09:13.618Z,6.80
2023-07-30T17:11:22.361Z,7.50
2023-07-30T17:13:31.502Z,8.30
2023-07-30T17:15:40.003Z,8.43
2023-07-30T17:17:51.118Z,8.83
2023-07-30T17:20:00.960Z,8.37
2023-07-30T17:22:11.883Z,8.43
2023-07-30T17:24:20.396Z,8.33
2023-07-30T17:26:31.972Z,8.03
2023-07-30T17:28:41.869Z,8.80
2023-07-30T17:30:51.046Z,8.60
2023-07-30T17:33:03.091Z,9.20
2023-07-30T17:35:11.777Z,8.60
2023-07-30T17:37:20.320Z,8.43
2023-07-30T17:39:28.742Z,8.83
2023-07-30T17:41:37.324Z,9.27
2023-07-30T17:43:46.841Z,9.53
2023-07-30T17:45:55.440Z,9.70
2023-07-30T17:48:06.599Z,9.57
2023-07-30T17:50:15.113Z,10.70
2023-07-30T17:52:23.654Z,10.10
2023-07-30T17:54:32.213Z,10.00
2023-07-30T17:56:43.120Z,9.73
2023-07-30T17:58:51.698Z,8.63
2023-07-30T18:01:04.991Z,9.63
2023-07-30T18:03:15.401Z,9.33
2023-07-30T18:05:33.848Z,9.67
2023-07-30T18:07:52.897Z,9.87
2023-07-30T18:10:01.684Z,10.67
2023-07-30T18:12:10.308Z,5.53
2023-07-30T18:14:18.896Z,5.60
2023-07-30T18:16:27.467Z,4.23
2023-07-30T18:18:37.499Z,3.60
2023-07-30T18:20:46.072Z,4.60
2023-07-30T18:22:54.513Z,4.13
2023-07-30T18:25:03.008Z,10.20
2023-07-30T18:27:11.528Z,5.53
2023-07-30T18:29:20.084Z,3.77
2023-07-30T18:31:28.614Z,3.03
2023-07-30T18:33:38.617Z,3.20
2023-07-30T18:35:47.175Z,3.40
2023-07-30T18:37:55.897Z,3.00
2023-07-30T18:40:06.454Z,3.00
2023-07-30T18:42:17.851Z,3.93
2023-07-30T18:44:26.350Z,3.10
2023-07-30T18:46:34.868Z,3.17
2023-07-30T18:48:44.902Z,2.50
2023-07-30T18:50:52.394Z,2.73
2023-07-30T18:53:01.021Z,2.90
2023-07-30T18:55:09.789Z,2.83
2023-07-30T18:57:18.466Z,3.00
2023-07-30T18:59:26.930Z,2.90
2023-07-30T19:01:40.207Z,2.80
2023-07-30T19:03:52.533Z,2.60
2023-07-30T19:06:02.087Z,2.60
2023-07-30T19:08:10.506Z,2.80
2023-07-30T19:10:19.046Z,3.10
2023-07-30T19:12:27.520Z,3.13
2023-07-30T19:14:36.021Z,2.67
2023-07-30T19:16:46.441Z,3.00
2023-07-30T19:18:56.266Z,2.97
2023-07-30T19:21:05.325Z,3.00
2023-07-30T19:23:13.888Z,3.20
2023-07-30T19:25:22.322Z,3.37
2023-07-30T19:27:30.835Z,3.30
2023-07-30T19:29:39.309Z,3.23
2023-07-30T19:31:47.769Z,2.83
2023-07-30T19:34:10.229Z,2.63
2023-07-30T19:36:18.735Z,3.23
2023-07-30T19:38:27.275Z,3.23
2023-07-30T19:40:36.239Z,3.07
2023-07-30T19:42:44.707Z,3.70
2023-07-30T19:44:55.092Z,3.20
2023-07-30T19:47:04.049Z,3.37
2023-07-30T19:49:14.461Z,3.13
2023-07-30T19:51:23.458Z,3.33
2023-07-30T19:53:32.013Z,3.50
2023-07-30T19:55:41.309Z,3.77
2023-07-30T19:57:49.699Z,3.37
2023-07-30T19:59:58.149Z,3.90
2023-07-30T20:02:07.931Z,3.70
2023-07-30T20:04:17.911Z,3.90
2023-07-30T20:06:26.448Z,3.70
2023-07-30T20:08:35.293Z,3.70
2023-07-30T20:10:43.790Z,4.00
2023-07-30T20:12:52.274Z,4.30
2023-07-30T20:15:00.932Z,3.77
2023-07-30T20:17:09.379Z,3.77
2023-07-30T20:19:19.290Z,3.60
2023-07-30T20:21:29.586Z,3.97
2023-07-30T20:23:39.035Z,4.00
2023-07-30T20:25:47.513Z,3.70
2023-07-30T20:27:56.070Z,3.97
2023-07-30T20:30:04.559Z,4.27
2023-07-30T20:32:12.993Z,4.27
2023-07-30T20:34:24.609Z,4.30
2023-07-30T20:36:33.017Z,3.97
2023-07-30T20:38:41.717Z,3.90
2023-07-30T20:40:51.066Z,4.07
2023-07-30T20:42:59.619Z,4.40
2023-07-30T20:45:08.759Z,4.07
2023-07-30T20:47:17.252Z,4.73
2023-07-30T20:49:27.136Z,4.10
2023-07-30T20:51:35.751Z,4.30
2023-07-30T20:53:43.231Z,4.93
2023-07-30T20:55:51.937Z,4.50
2023-07-30T20:58:00.045Z,4.67
2023-07-30T21:00:09.761Z,4.60
2023-07-30T21:02:18.880Z,4.60
2023-07-30T21:04:28.962Z,4.57
2023-07-30T21:06:39.307Z,4.20
2023-07-30T21:08:47.969Z,4.63
2023-07-30T21:10:56.545Z,4.50
2023-07-30T21:13:05.133Z,4.30
2023-07-30T21:15:13.695Z,4.60
2023-07-30T21:17:23.076Z,4.70
2023-07-30T21:19:33.006Z,4.43
2023-07-30T21:21:41.594Z,3.97
2023-07-30T21:23:50.209Z,4.47
2023-07-30T21:26:00.786Z,4.37
2023-07-30T21:28:09.258Z,4.70
2023-07-30T21:30:17.735Z,5.03
2023-07-30T21:32:26.276Z,5.10
2023-07-30T21:34:36.288Z,5.60
2023-07-30T21:36:44.726Z,5.53
2023-07-30T21:38:53.312Z,5.33
2023-07-30T21:41:02.034Z,5.90
2023-07-30T21:43:10.569Z,6.70
2023-07-30T21:45:19.271Z,6.80
2023-07-30T21:47:29.394Z,8.73
2023-07-30T21:49:39.636Z,8.23
2023-07-30T21:51:48.185Z,8.70
2023-07-30T21:53:56.738Z,8.53
2023-07-30T21:56:07.490Z,7.77
2023-07-30T21:58:16.100Z,7.83
2023-07-30T22:00:24.778Z,8.40
2023-07-30T22:02:33.364Z,8.73
2023-07-30T22:04:42.336Z,10.13
2023-07-30T22:06:50.826Z,8.90
2023-07-30T22:09:02.384Z,10.07
2023-07-30T22:11:10.885Z,9.87
2023-07-30T22:13:21.357Z,8.77
2023-07-30T22:15:30.191Z,10.00
2023-07-30T22:17:40.889Z,10.23
2023-07-30T22:19:50.719Z,10.07
2023-07-30T22:21:58.184Z,11.20
2023-07-30T22:24:06.856Z,11.20
2023-07-30T22:26:15.352Z,11.43
2023-07-30T22:28:23.945Z,11.60
2023-07-30T22:30:33.874Z,11.43
2023-07-30T22:32:42.429Z,11.63
2023-07-30T22:34:52.479Z,10.97
2023-07-30T22:37:01.044Z,11.23
2023-07-30T22:39:09.661Z,11.60
2023-07-30T22:41:18.293Z,11.00
2023-07-30T22:43:26.754Z,12.23
2023-07-30T22:45:35.310Z,11.50
2023-07-30T22:47:43.877Z,11.87
2023-07-30T22:49:55.468Z,11.00
2023-07-30T22:52:04.114Z,11.80
2023-07-30T22:54:12.708Z,11.13
2023-07-30T22:56:21.341Z,11.90
2023-07-30T22:58:29.913Z,12.53
2023-07-30T23:00:38.520Z,11.83
2023-07-30T23:02:49.209Z,12.47
2023-07-30T23:05:01.178Z,12.63
2023-07-30T23:07:09.616Z,11.30
2023-07-30T23:09:23.682Z,11.60
2023-07-30T23:11:32.285Z,11.20
2023-07-30T23:13:40.792Z,11.33
2023-07-30T23:15:51.822Z,11.20
2023-07-30T23:18:00.430Z,11.23
2023-07-30T23:20:11.075Z,12.10
2023-07-30T23:22:19.538Z,12.40
2023-07-30T23:24:29.067Z,12.10
2023-07-30T23:26:39.996Z,11.67
2023-07-30T23:28:48.927Z,12.23
2023-07-30T23:30:57.406Z,12.03
2023-07-30T23:33:05.934Z,11.57
2023-07-30T23:35:16.961Z,11.63
2023-07-30T23:37:26.359Z,12.13
2023-07-30T23:39:38.086Z,11.40
2023-07-30T23:41:46.662Z,11.20
2023-07-30T23:43:56.766Z,11.00
2023-07-30T23:46:05.461Z,10.57
2023-07-30T23:48:14.115Z,11.20
2023-07-30T23:50:24.058Z,11.53
2023-07-30T23:52:33.146Z,11.80
2023-07-30T23:54:41.800Z,12.90
2023-07-30T23:56:50.459Z,12.87
2023-07-30T23:59:01.803Z,13.97
